Etusivu
METAR-TAF:

METAR-TAF

Lentoasemat :

Sal, Kap Verde

Leveyspiiri: 16-44N, Pituuspiiri: 022-57W, korkeus merenpinnasta: 54 m

Tämänhetkinen sää

Tämä raportti tehtiin 39 minuuttia sitten, kello 18.00 UTC
Tuuli 10 kn koillisesta
Lämpötila 24°C
Kosteus 61%
Ilmanpaine 1012 hPa
Näkyvyys 10 km tai enemmän
Hajonneita pilviä 1300 ft:n korkeudessa

METAR: GVAC 231800Z 04010KT 9999 BKN013 24/16 Q1012 NOSIG

Aika: 17:39 (18:39 UTC)

Sääennuste

Tämä raportti tehtiin 1 tunti ja 39 minuuttia sitten, kello 17.00 UTC
Ennuste voimassa 23. päivästä klo 18 UTC - 24. päivään klo 24 UTC
Tuuli 14 kn koillisesta
Näkyvyys 10 km tai enemmän
Hajanaisia pilviä 1300 ft:n korkeudessa

TAF: GVAC 231700Z 2318/2424 04014KT 9999 SCT013

Säähavainnot ja -ennusteet yli 4000 lentoasemalta (METAR- ja TAF-raportit).

Käytössä olevat sääasemat on merkitty karttaan keltaisilla ja punaisilla pisteillä.

Aseta hiiri pisteen päälle nähdäksesi sääaseman nimen.

Klikkaa sitten nähdäksesi säähavainnot ja -ennusteet.

Kartan vaihtaminen: klikkaa mustalla rastilla varustettuja vihreitä pisteitä, niin voit zoomata sisään; viivalla varustettua vihreää pistettä, niin voit zoomata ulos tai vihreitä nuolia, niin pääset viereisille kartoille.


METAR-TAF: